createdAt,value
2017-08-10T00:00:01.744Z,64.97
2017-08-10T00:02:28.092Z,66.31
2017-08-10T00:04:54.467Z,66.74
2017-08-10T00:07:20.863Z,65.76
2017-08-10T00:09:47.267Z,64.76
2017-08-10T00:12:13.641Z,64.96
2017-08-10T00:14:40.038Z,64.62
2017-08-10T00:17:06.455Z,64.78
2017-08-10T00:19:32.830Z,65.73
2017-08-10T00:21:59.264Z,66.13
2017-08-10T00:24:25.634Z,66.14
2017-08-10T00:26:52.004Z,66.65
2017-08-10T00:29:18.346Z,66.82
2017-08-10T00:31:44.720Z,66.89
2017-08-10T00:34:11.174Z,66.99
2017-08-10T00:36:37.532Z,66.30
2017-08-10T00:39:03.948Z,65.74
2017-08-10T00:41:30.312Z,65.66
2017-08-10T00:43:56.634Z,65.72
2017-08-10T00:46:22.969Z,65.92
2017-08-10T00:48:49.333Z,65.30
2017-08-10T00:51:15.731Z,65.84
2017-08-10T00:53:42.076Z,65.65
2017-08-10T00:56:08.435Z,65.28
2017-08-10T00:58:34.823Z,65.55
2017-08-10T01:01:01.197Z,66.52
2017-08-10T01:03:27.558Z,66.66
2017-08-10T01:05:53.886Z,66.94
2017-08-10T01:08:20.230Z,67.70
2017-08-10T01:10:46.611Z,67.46
2017-08-10T01:13:12.990Z,67.50
2017-08-10T01:15:39.346Z,67.40
2017-08-10T01:18:05.720Z,66.65
2017-08-10T01:20:32.087Z,66.89
2017-08-10T01:22:58.448Z,67.04
2017-08-10T01:25:24.832Z,66.60
2017-08-10T01:27:51.192Z,66.53
2017-08-10T01:30:17.588Z,66.87
2017-08-10T01:32:43.926Z,67.08
2017-08-10T01:35:10.293Z,66.63
2017-08-10T01:37:36.660Z,67.86
2017-08-10T01:40:03.092Z,69.11
2017-08-10T01:42:29.487Z,68.91
2017-08-10T01:44:55.875Z,68.35
2017-08-10T01:47:22.268Z,67.66
2017-08-10T01:49:48.651Z,67.90
2017-08-10T01:52:15.023Z,68.33
2017-08-10T01:54:41.388Z,68.29
2017-08-10T01:57:07.764Z,67.44
2017-08-10T01:59:34.135Z,67.53
2017-08-10T02:02:00.562Z,67.82
2017-08-10T02:04:26.976Z,67.12
2017-08-10T02:06:53.294Z,67.50
2017-08-10T02:09:19.645Z,68.20
2017-08-10T02:11:46.037Z,68.51
2017-08-10T02:14:12.435Z,68.70
2017-08-10T02:16:38.776Z,68.29
2017-08-10T02:19:05.127Z,68.70
2017-08-10T02:21:31.481Z,69.72
2017-08-10T02:23:57.810Z,69.63
2017-08-10T02:26:24.167Z,69.21
2017-08-10T02:28:50.528Z,69.36
2017-08-10T02:31:16.902Z,69.00
2017-08-10T02:33:43.283Z,69.18
2017-08-10T02:36:09.645Z,68.35
2017-08-10T02:38:36.108Z,69.21
2017-08-10T02:41:02.462Z,69.94
2017-08-10T02:43:29.201Z,69.37
2017-08-10T02:45:55.581Z,69.45
2017-08-10T02:48:21.933Z,68.23
2017-08-10T02:50:48.291Z,68.34
2017-08-10T02:53:14.696Z,68.25
2017-08-10T02:55:41.055Z,68.70
2017-08-10T02:58:07.690Z,68.87
2017-08-10T03:00:34.044Z,69.20
2017-08-10T03:03:00.435Z,68.92
2017-08-10T03:05:26.811Z,68.79
2017-08-10T03:07:53.177Z,69.12
2017-08-10T03:10:19.546Z,69.17
2017-08-10T03:12:45.932Z,69.46
2017-08-10T03:15:12.284Z,69.05
2017-08-10T03:17:38.634Z,69.28
2017-08-10T03:20:04.982Z,70.36
2017-08-10T03:22:31.412Z,69.56
2017-08-10T03:24:57.771Z,70.00
2017-08-10T03:27:24.121Z,71.10
2017-08-10T03:29:50.484Z,70.63
2017-08-10T03:32:16.831Z,70.03
2017-08-10T03:34:43.176Z,70.26
2017-08-10T03:37:09.567Z,69.88
2017-08-10T03:39:36.275Z,71.45
2017-08-10T03:42:02.624Z,71.94
2017-08-10T03:44:29.017Z,70.52
2017-08-10T03:46:55.390Z,71.25
2017-08-10T03:49:21.748Z,71.54
2017-08-10T03:51:48.095Z,70.45
2017-08-10T03:54:14.455Z,70.46
2017-08-10T03:56:40.835Z,71.01
2017-08-10T03:59:07.169Z,70.93
2017-08-10T04:01:33.573Z,70.27
2017-08-10T04:03:59.933Z,70.41
2017-08-10T04:06:26.588Z,70.18
2017-08-10T04:08:52.988Z,70.41
2017-08-10T04:11:19.334Z,72.40
2017-08-10T04:13:45.729Z,72.49
2017-08-10T04:16:12.096Z,73.05
2017-08-10T04:18:38.801Z,71.20
2017-08-10T04:21:05.143Z,71.00
2017-08-10T04:23:31.611Z,71.42
2017-08-10T04:25:57.948Z,72.17
2017-08-10T04:28:24.306Z,72.56
2017-08-10T04:30:50.680Z,72.08
2017-08-10T04:33:17.098Z,71.84
2017-08-10T04:35:43.440Z,71.75
2017-08-10T04:38:09.774Z,72.27
2017-08-10T04:40:36.113Z,72.01
2017-08-10T04:43:02.471Z,71.74
2017-08-10T04:45:28.863Z,71.89
2017-08-10T04:47:55.225Z,72.15
2017-08-10T04:50:21.615Z,71.63
2017-08-10T04:52:47.975Z,71.91
2017-08-10T04:55:14.346Z,72.06
2017-08-10T04:57:40.691Z,72.57
2017-08-10T05:00:07.036Z,72.49
2017-08-10T05:02:33.393Z,72.84
2017-08-10T05:04:59.726Z,72.72
2017-08-10T05:07:26.112Z,71.98
2017-08-10T05:09:52.477Z,72.75
2017-08-10T05:12:18.805Z,72.81
2017-08-10T05:14:45.180Z,73.16
2017-08-10T05:17:11.591Z,72.08
2017-08-10T05:19:39.977Z,73.11
2017-08-10T05:22:06.358Z,73.25
2017-08-10T05:24:32.743Z,73.66
2017-08-10T05:26:59.096Z,73.17
2017-08-10T05:29:25.471Z,73.31
2017-08-10T05:31:52.774Z,72.79
2017-08-10T05:34:19.158Z,72.58
2017-08-10T05:36:45.539Z,72.84
2017-08-10T05:39:11.919Z,73.01
2017-08-10T05:41:39.508Z,72.87
2017-08-10T05:44:06.132Z,73.61
2017-08-10T05:46:32.485Z,74.03
2017-08-10T05:48:58.837Z,74.32
2017-08-10T05:51:25.273Z,73.47
2017-08-10T05:53:51.629Z,73.90
2017-08-10T05:56:18.008Z,74.12
2017-08-10T05:58:44.383Z,74.92
2017-08-10T06:01:10.720Z,74.91
2017-08-10T06:03:37.077Z,75.64
2017-08-10T06:06:03.434Z,74.40
2017-08-10T06:08:29.780Z,74.20
2017-08-10T06:10:56.146Z,73.54
2017-08-10T06:13:22.573Z,73.98
2017-08-10T06:15:48.913Z,74.48
2017-08-10T06:18:15.285Z,74.44
2017-08-10T06:20:41.640Z,74.24
2017-08-10T06:23:07.989Z,74.53
2017-08-10T06:25:34.410Z,74.83
2017-08-10T06:28:00.780Z,74.03
2017-08-10T06:30:27.149Z,74.59
2017-08-10T06:32:53.511Z,74.47
2017-08-10T06:35:19.859Z,74.66
2017-08-10T06:37:46.255Z,74.77
2017-08-10T06:40:12.631Z,74.57
2017-08-10T06:42:39.009Z,74.81
2017-08-10T06:45:05.392Z,75.22
2017-08-10T06:47:31.865Z,74.78
2017-08-10T06:49:59.678Z,74.51
2017-08-10T06:52:26.036Z,74.30
2017-08-10T06:54:52.398Z,74.76
2017-08-10T06:57:18.766Z,74.43
2017-08-10T06:59:45.133Z,73.91
2017-08-10T07:02:11.521Z,74.43
2017-08-10T07:04:37.910Z,74.61
2017-08-10T07:07:04.307Z,74.03
2017-08-10T07:09:30.671Z,74.54
2017-08-10T07:11:57.060Z,75.22
2017-08-10T07:14:23.431Z,75.09
2017-08-10T07:16:49.828Z,75.69
2017-08-10T07:19:16.207Z,75.42
2017-08-10T07:21:42.568Z,74.67
2017-08-10T07:24:08.959Z,74.41
2017-08-10T07:26:35.310Z,75.00
2017-08-10T07:29:01.673Z,75.52
2017-08-10T07:31:28.053Z,76.00
2017-08-10T07:33:54.394Z,76.28
2017-08-10T07:36:20.786Z,75.93
2017-08-10T07:38:47.141Z,75.50
2017-08-10T07:41:13.500Z,75.21
2017-08-10T07:43:40.194Z,75.28
2017-08-10T07:46:06.565Z,75.34
2017-08-10T07:48:32.931Z,75.32
2017-08-10T07:50:59.314Z,75.53
2017-08-10T07:53:25.675Z,75.55
2017-08-10T07:55:52.106Z,75.66
2017-08-10T07:58:18.456Z,76.14
2017-08-10T08:00:44.811Z,76.18
2017-08-10T08:03:11.169Z,75.95
2017-08-10T08:05:37.562Z,75.98
2017-08-10T08:08:03.894Z,76.41
2017-08-10T08:10:30.258Z,75.85
2017-08-10T08:12:56.638Z,75.29
2017-08-10T08:15:23.019Z,75.66
2017-08-10T08:17:49.367Z,75.63
2017-08-10T08:20:15.702Z,75.68
2017-08-10T08:22:42.062Z,75.40
2017-08-10T08:25:08.449Z,75.17
2017-08-10T08:27:34.821Z,74.78
2017-08-10T08:30:01.146Z,75.04
2017-08-10T08:32:27.525Z,75.35
2017-08-10T08:34:53.914Z,74.74
2017-08-10T08:37:20.319Z,74.61
2017-08-10T08:39:46.709Z,74.93
2017-08-10T08:42:13.070Z,75.17
2017-08-10T08:44:39.439Z,75.60
2017-08-10T08:47:05.772Z,75.80
2017-08-10T08:49:32.145Z,75.44
2017-08-10T08:51:58.492Z,74.39
2017-08-10T08:54:24.854Z,74.23
2017-08-10T08:56:51.237Z,74.08
2017-08-10T08:59:17.608Z,74.13
2017-08-10T09:01:44.036Z,73.56
2017-08-10T09:04:10.424Z,73.89
2017-08-10T09:06:36.797Z,74.52
2017-08-10T09:09:03.276Z,74.32
2017-08-10T09:11:29.666Z,74.29
2017-08-10T09:13:56.019Z,74.46
2017-08-10T09:16:22.392Z,74.45
2017-08-10T09:18:48.730Z,75.28
2017-08-10T09:21:15.089Z,75.23
2017-08-10T09:23:41.454Z,75.27
2017-08-10T09:26:07.832Z,74.75
2017-08-10T09:28:34.231Z,74.53
2017-08-10T09:31:00.596Z,74.34
2017-08-10T09:33:26.965Z,74.20
2017-08-10T09:35:53.304Z,73.76
2017-08-10T09:38:19.678Z,74.58
2017-08-10T09:40:46.057Z,73.89
2017-08-10T09:43:12.422Z,73.42
2017-08-10T09:45:38.809Z,73.30
2017-08-10T09:48:05.267Z,73.29
2017-08-10T09:50:31.674Z,73.44
2017-08-10T09:52:58.132Z,73.49
2017-08-10T09:55:24.565Z,73.87
2017-08-10T09:57:50.941Z,74.21
2017-08-10T10:00:17.335Z,74.62
2017-08-10T10:02:43.980Z,74.04
2017-08-10T10:05:10.332Z,73.49
2017-08-10T10:07:36.682Z,73.58
2017-08-10T10:10:03.118Z,73.78
2017-08-10T10:12:29.487Z,73.31
2017-08-10T10:14:55.874Z,73.27
2017-08-10T10:17:22.246Z,73.52
2017-08-10T10:19:48.637Z,73.40
2017-08-10T10:22:14.991Z,73.53
2017-08-10T10:24:41.358Z,74.18
2017-08-10T10:27:07.712Z,73.31
2017-08-10T10:29:34.076Z,73.46
2017-08-10T10:32:00.469Z,73.48
2017-08-10T10:34:26.817Z,72.91
2017-08-10T10:36:53.189Z,74.11
2017-08-10T10:39:19.563Z,73.56
2017-08-10T10:41:45.953Z,73.07
2017-08-10T10:44:12.329Z,73.13
2017-08-10T10:46:38.732Z,72.42
2017-08-10T10:49:05.141Z,72.40
2017-08-10T10:51:31.494Z,72.50
2017-08-10T10:53:57.887Z,72.41
2017-08-10T10:56:24.311Z,72.34
2017-08-10T10:58:50.703Z,72.03
2017-08-10T11:01:17.105Z,72.33
2017-08-10T11:03:43.497Z,73.28
2017-08-10T11:06:09.875Z,72.92
2017-08-10T11:08:36.237Z,72.73
2017-08-10T11:11:02.621Z,73.21
2017-08-10T11:13:29.015Z,72.52
2017-08-10T11:15:55.401Z,72.29
2017-08-10T11:18:21.761Z,72.66
2017-08-10T11:20:48.130Z,72.97
2017-08-10T11:23:14.529Z,73.92
2017-08-10T11:25:40.881Z,74.09
2017-08-10T11:28:07.260Z,73.93
2017-08-10T11:30:33.695Z,73.78
2017-08-10T11:33:00.063Z,73.84
2017-08-10T11:35:26.426Z,73.68
2017-08-10T11:37:52.809Z,73.86
2017-08-10T11:40:19.202Z,73.16
2017-08-10T11:42:45.600Z,73.82
2017-08-10T11:45:11.956Z,73.07
2017-08-10T11:47:38.337Z,73.10
2017-08-10T11:50:04.720Z,73.37
2017-08-10T11:52:31.090Z,74.96
2017-08-10T11:54:57.480Z,74.42
2017-08-10T11:57:23.853Z,74.42
2017-08-10T11:59:50.216Z,75.36
2017-08-10T12:02:16.620Z,75.29
2017-08-10T12:04:45.826Z,75.13
2017-08-10T12:07:12.202Z,74.72
2017-08-10T12:09:38.593Z,74.33
2017-08-10T12:12:04.962Z,74.07
2017-08-10T12:14:31.354Z,74.33
2017-08-10T12:16:57.748Z,74.78
2017-08-10T12:19:24.143Z,74.68
2017-08-10T12:21:50.524Z,74.87
2017-08-10T12:24:16.902Z,74.97
2017-08-10T12:26:43.280Z,75.08
2017-08-10T12:29:09.659Z,75.33
2017-08-10T12:31:36.041Z,76.05
2017-08-10T12:34:02.455Z,75.90
2017-08-10T12:36:28.826Z,76.00
2017-08-10T12:38:55.218Z,75.78
2017-08-10T12:41:21.584Z,76.51
2017-08-10T12:43:47.961Z,76.50
2017-08-10T12:46:14.332Z,76.39
2017-08-10T12:48:40.696Z,76.20
2017-08-10T12:51:07.088Z,76.42
2017-08-10T12:53:33.456Z,75.76
2017-08-10T12:55:59.835Z,75.69
2017-08-10T12:58:26.222Z,75.36
2017-08-10T13:00:52.580Z,75.93
2017-08-10T13:03:18.964Z,75.98
2017-08-10T13:05:45.382Z,76.36
2017-08-10T13:08:11.749Z,76.69
2017-08-10T13:10:38.130Z,76.52
2017-08-10T13:13:04.474Z,76.55
2017-08-10T13:15:30.838Z,76.98
2017-08-10T13:17:57.190Z,76.70
2017-08-10T13:20:23.593Z,77.30
2017-08-10T13:22:49.976Z,77.48
2017-08-10T13:25:16.369Z,78.14
2017-08-10T13:27:42.748Z,77.77
2017-08-10T13:30:09.207Z,76.52
2017-08-10T13:32:35.601Z,76.42
2017-08-10T13:35:01.962Z,76.31
2017-08-10T13:37:28.369Z,76.55
2017-08-10T13:39:54.701Z,76.99
2017-08-10T13:42:21.104Z,76.78
2017-08-10T13:44:47.491Z,76.58
2017-08-10T13:47:13.860Z,76.75
2017-08-10T13:49:40.267Z,76.32
2017-08-10T13:52:06.671Z,76.23
2017-08-10T13:54:33.042Z,75.98
2017-08-10T13:56:59.413Z,76.15
2017-08-10T13:59:25.799Z,76.19
2017-08-10T14:01:52.187Z,76.12
2017-08-10T14:04:18.581Z,76.29
2017-08-10T14:06:44.993Z,75.88
2017-08-10T14:09:11.375Z,75.91
2017-08-10T14:11:37.764Z,75.47
2017-08-10T14:14:04.122Z,75.38
2017-08-10T14:16:30.524Z,75.63
2017-08-10T14:18:56.923Z,74.65
2017-08-10T14:21:23.318Z,75.36
2017-08-10T14:23:49.681Z,75.44
2017-08-10T14:26:16.058Z,75.31
2017-08-10T14:28:42.458Z,75.32
2017-08-10T14:31:08.807Z,74.03
2017-08-10T14:33:35.190Z,73.95
2017-08-10T14:36:01.576Z,74.35
2017-08-10T14:38:27.948Z,74.59
2017-08-10T14:40:54.381Z,75.00
2017-08-10T14:43:20.777Z,74.96
2017-08-10T14:45:47.138Z,74.25
2017-08-10T14:48:13.505Z,75.18
2017-08-10T14:50:39.911Z,74.08
2017-08-10T14:53:06.254Z,75.05
2017-08-10T14:55:32.683Z,74.56
2017-08-10T14:57:59.081Z,74.87
2017-08-10T15:00:25.488Z,75.66
2017-08-10T15:02:51.867Z,75.80
2017-08-10T15:05:18.292Z,75.74
2017-08-10T15:07:44.666Z,75.01
2017-08-10T15:10:11.028Z,75.74
2017-08-10T15:12:37.405Z,76.07
2017-08-10T15:15:03.793Z,76.03
2017-08-10T15:17:30.131Z,76.81
2017-08-10T15:19:56.469Z,76.61
2017-08-10T15:22:22.896Z,77.22
2017-08-10T15:24:49.272Z,76.06
2017-08-10T15:27:15.802Z,76.77
2017-08-10T15:29:42.163Z,76.14
2017-08-10T15:32:08.526Z,76.15
2017-08-10T15:34:34.887Z,76.74
2017-08-10T15:37:01.235Z,76.61
2017-08-10T15:39:27.636Z,76.57
2017-08-10T15:41:54.052Z,76.90
2017-08-10T15:44:20.429Z,77.39
2017-08-10T15:46:46.825Z,77.39
2017-08-10T15:49:13.201Z,77.92
2017-08-10T15:51:39.603Z,77.83
2017-08-10T15:54:05.981Z,78.77
2017-08-10T15:56:32.338Z,78.68
2017-08-10T15:58:58.698Z,78.18
2017-08-10T16:01:25.072Z,78.41
2017-08-10T16:03:51.433Z,77.96
2017-08-10T16:06:17.782Z,78.93
2017-08-10T16:08:44.164Z,78.49
2017-08-10T16:11:10.537Z,79.02
2017-08-10T16:13:36.919Z,78.94
2017-08-10T16:16:03.287Z,79.05
2017-08-10T16:18:29.634Z,79.82
2017-08-10T16:20:56.023Z,79.96
2017-08-10T16:23:22.374Z,78.59
2017-08-10T16:25:48.783Z,79.12
2017-08-10T16:28:15.183Z,79.02
2017-08-10T16:30:41.544Z,78.38
2017-08-10T16:33:07.939Z,79.04
2017-08-10T16:35:34.287Z,78.95
2017-08-10T16:38:00.669Z,79.81
2017-08-10T16:40:27.032Z,80.03
2017-08-10T16:42:53.423Z,79.17
2017-08-10T16:45:19.774Z,78.73
2017-08-10T16:47:46.152Z,79.57
2017-08-10T16:50:12.507Z,79.71
2017-08-10T16:52:38.887Z,79.40
2017-08-10T16:55:05.237Z,79.38
2017-08-10T16:57:31.597Z,79.39
2017-08-10T16:59:57.982Z,79.12
2017-08-10T17:02:24.394Z,79.25
2017-08-10T17:04:50.774Z,79.52
2017-08-10T17:07:17.134Z,80.02
2017-08-10T17:09:43.524Z,79.45
2017-08-10T17:12:09.904Z,79.55
2017-08-10T17:14:36.274Z,79.15
2017-08-10T17:17:02.652Z,78.91
2017-08-10T17:19:29.060Z,79.52
2017-08-10T17:21:55.420Z,79.67
2017-08-10T17:24:21.841Z,79.05
2017-08-10T17:26:48.220Z,78.99
2017-08-10T17:29:14.592Z,79.13
2017-08-10T17:31:40.965Z,78.58
2017-08-10T17:34:07.332Z,78.89
2017-08-10T17:36:33.712Z,78.80
2017-08-10T17:39:00.113Z,78.83
2017-08-10T17:41:26.470Z,78.74
2017-08-10T17:43:52.840Z,78.47
2017-08-10T17:46:19.209Z,78.79
2017-08-10T17:48:45.560Z,79.09
2017-08-10T17:51:11.944Z,79.09
2017-08-10T17:53:38.307Z,78.97
2017-08-10T17:56:04.667Z,79.29
2017-08-10T17:58:31.049Z,78.50
2017-08-10T18:01:00.142Z,78.64
2017-08-10T18:03:23.881Z,79.61
2017-08-10T18:05:50.276Z,79.50
2017-08-10T18:08:16.616Z,79.44
2017-08-10T18:10:43.025Z,79.20
2017-08-10T18:13:09.469Z,79.35
2017-08-10T18:15:35.837Z,79.14
2017-08-10T18:18:02.205Z,79.73
2017-08-10T18:20:28.583Z,79.38
2017-08-10T18:22:54.941Z,79.81
2017-08-10T18:25:21.375Z,79.96
2017-08-10T18:27:47.791Z,80.19
2017-08-10T18:30:14.170Z,80.02
2017-08-10T18:32:40.593Z,80.40
2017-08-10T18:35:06.967Z,80.67
2017-08-10T18:37:33.356Z,80.12
2017-08-10T18:39:59.764Z,80.18
2017-08-10T18:42:26.187Z,80.41
2017-08-10T18:44:52.548Z,80.82
2017-08-10T18:47:18.917Z,80.43
2017-08-10T18:49:45.276Z,79.81
2017-08-10T18:52:11.637Z,80.34
2017-08-10T18:54:38.017Z,80.61
2017-08-10T18:57:04.372Z,80.16
2017-08-10T18:59:30.743Z,79.43
2017-08-10T19:01:57.137Z,79.41
2017-08-10T19:04:23.578Z,80.53
2017-08-10T19:06:49.948Z,79.59
2017-08-10T19:09:16.582Z,79.93
2017-08-10T19:11:42.962Z,79.63
2017-08-10T19:14:09.368Z,79.84
2017-08-10T19:16:35.740Z,79.60
2017-08-10T19:19:02.081Z,79.62
2017-08-10T19:21:28.474Z,79.43
2017-08-10T19:23:55.171Z,79.32
2017-08-10T19:26:21.545Z,79.44
2017-08-10T19:28:47.929Z,80.14
2017-08-10T19:31:14.322Z,79.43
2017-08-10T19:33:40.708Z,79.63
2017-08-10T19:36:07.155Z,79.21
2017-08-10T19:38:33.529Z,79.58
2017-08-10T19:40:59.879Z,79.45
2017-08-10T19:43:26.267Z,80.14
2017-08-10T19:45:52.900Z,80.65
2017-08-10T19:48:19.489Z,80.68
2017-08-10T19:50:45.878Z,80.23
2017-08-10T19:53:12.312Z,79.61
2017-08-10T19:55:38.685Z,79.83
2017-08-10T19:58:05.051Z,80.44
2017-08-10T20:00:31.493Z,80.35
2017-08-10T20:02:57.870Z,79.75
2017-08-10T20:05:24.280Z,80.27
2017-08-10T20:07:50.659Z,80.89
2017-08-10T20:10:17.072Z,80.00
2017-08-10T20:12:43.480Z,80.04
2017-08-10T20:15:09.827Z,80.25
2017-08-10T20:17:36.193Z,80.48
2017-08-10T20:20:02.631Z,80.19
2017-08-10T20:22:29.028Z,80.48
2017-08-10T20:24:55.436Z,80.61
2017-08-10T20:27:21.846Z,80.37
2017-08-10T20:29:48.203Z,79.47
2017-08-10T20:32:14.572Z,79.67
2017-08-10T20:34:40.950Z,80.19
2017-08-10T20:37:07.354Z,79.49
2017-08-10T20:39:33.711Z,79.89
2017-08-10T20:42:00.098Z,79.87
2017-08-10T20:44:26.462Z,79.60
2017-08-10T20:46:52.837Z,80.17
2017-08-10T20:49:19.249Z,79.50
2017-08-10T20:51:45.587Z,80.10
2017-08-10T20:54:12.361Z,79.60
2017-08-10T20:56:38.736Z,80.14
2017-08-10T20:59:05.118Z,80.58
2017-08-10T21:01:31.486Z,79.69
2017-08-10T21:03:57.864Z,79.82
2017-08-10T21:06:24.259Z,79.85
2017-08-10T21:08:50.622Z,79.67
2017-08-10T21:11:16.994Z,79.84
2017-08-10T21:13:43.334Z,81.62
2017-08-10T21:16:09.736Z,81.26
2017-08-10T21:18:36.117Z,80.85
2017-08-10T21:21:02.508Z,80.69
2017-08-10T21:23:28.882Z,80.57
2017-08-10T21:25:55.251Z,81.01
2017-08-10T21:28:21.595Z,81.22
2017-08-10T21:30:47.974Z,81.05
2017-08-10T21:33:14.367Z,80.99
2017-08-10T21:35:40.740Z,80.93
2017-08-10T21:38:07.099Z,80.81
2017-08-10T21:40:33.463Z,80.24
2017-08-10T21:42:59.872Z,80.27
2017-08-10T21:45:26.240Z,80.58
2017-08-10T21:47:52.604Z,81.16
2017-08-10T21:50:18.986Z,80.53
2017-08-10T21:52:45.339Z,81.13
2017-08-10T21:55:11.684Z,81.20
2017-08-10T21:57:38.057Z,81.08
2017-08-10T22:00:04.411Z,81.27
2017-08-10T22:02:30.739Z,80.93
2017-08-10T22:04:57.116Z,81.29
2017-08-10T22:07:23.449Z,81.53
2017-08-10T22:09:49.847Z,81.10
2017-08-10T22:12:16.192Z,80.77
2017-08-10T22:14:42.865Z,81.39
2017-08-10T22:17:09.254Z,81.03
2017-08-10T22:19:35.630Z,80.63
2017-08-10T22:22:01.992Z,80.82
2017-08-10T22:24:28.404Z,80.57
2017-08-10T22:26:54.792Z,80.02
2017-08-10T22:29:21.179Z,80.80
2017-08-10T22:31:47.559Z,80.19
2017-08-10T22:34:13.941Z,80.23
2017-08-10T22:36:40.303Z,80.48
2017-08-10T22:39:06.725Z,80.66
2017-08-10T22:41:33.137Z,81.43
2017-08-10T22:43:59.535Z,81.29
2017-08-10T22:46:25.915Z,80.38
2017-08-10T22:48:52.285Z,81.34
2017-08-10T22:51:18.652Z,80.77
2017-08-10T22:53:45.042Z,81.43
2017-08-10T22:56:11.443Z,81.27
2017-08-10T22:58:37.817Z,81.24
2017-08-10T23:01:04.241Z,80.99
2017-08-10T23:03:30.667Z,81.45
2017-08-10T23:05:57.040Z,81.15
2017-08-10T23:08:23.487Z,81.47
2017-08-10T23:10:49.883Z,81.31
2017-08-10T23:13:16.278Z,81.00
2017-08-10T23:15:42.631Z,80.60
2017-08-10T23:18:09.051Z,80.72
2017-08-10T23:20:35.439Z,80.57
2017-08-10T23:23:01.804Z,81.44
2017-08-10T23:25:28.175Z,81.82
2017-08-10T23:27:54.571Z,82.26
2017-08-10T23:30:21.035Z,82.13
2017-08-10T23:32:47.465Z,82.37
2017-08-10T23:35:13.864Z,81.90
2017-08-10T23:37:40.230Z,82.27
2017-08-10T23:40:06.616Z,81.64
2017-08-10T23:42:33.020Z,81.33
2017-08-10T23:44:59.375Z,81.94
2017-08-10T23:47:25.768Z,81.30
2017-08-10T23:49:52.232Z,81.50
2017-08-10T23:52:18.598Z,82.04
2017-08-10T23:54:44.980Z,81.74
2017-08-10T23:57:11.359Z,82.56
2017-08-10T23:59:37.715Z,81.87
